Time;durP1;ratioP1;P1;durP2;ratioP2;P2;SDS_P1;SDS_P2;PMS_P1;PMS_P2;Temp;Humidity;BMP_temperature;BMP_pressure;BME280_temperature;BME280_humidity;BME280_pressure;Samples;Min_cycle;Max_cycle;Signal;HPM_P1;HPM_P2
2023/05/11 00:01:06;;;;;;;2.00;1.10;;;14.80;99.90;;;;;;5024618;28;20609;-54
2023/05/11 00:03:32;;;;;;;2.25;1.55;;;14.70;99.90;;;;;;5033503;28;20032;-55
2023/05/11 00:05:58;;;;;;;2.30;1.58;;;14.70;99.90;;;;;;4997578;28;20040;-54
2023/05/11 00:08:24;;;;;;;1.30;1.00;;;14.70;99.90;;;;;;5031681;28;20028;-55
2023/05/11 00:10:50;;;;;;;2.50;1.60;;;14.80;99.90;;;;;;5029430;28;20104;-54
2023/05/11 00:13:16;;;;;;;1.75;1.45;;;;;;;;;;5029359;28;20029;-55
2023/05/11 00:15:42;;;;;;;1.45;1.30;;;;;;;;;;5034753;28;20544;-55
2023/05/11 00:18:08;;;;;;;1.30;1.20;;;;;;;;;;4981535;28;20053;-55
2023/05/11 00:20:34;;;;;;;0.73;0.73;;;;;;;;;;5013050;28;20139;-54
2023/05/11 00:23:01;;;;;;;2.22;1.33;;;;;;;;;;5034150;28;20036;-54
2023/05/11 00:25:27;;;;;;;1.98;1.35;;;14.80;99.90;;;;;;5031116;28;20033;-54
2023/05/11 00:27:52;;;;;;;1.70;1.08;;;14.80;99.90;;;;;;5034807;28;20029;-54
2023/05/11 00:30:18;;;;;;;3.15;1.67;;;14.70;99.90;;;;;;5030164;28;20026;-55
2023/05/11 00:32:44;;;;;;;1.50;1.15;;;14.70;99.90;;;;;;4999403;28;20128;-55
2023/05/11 00:35:11;;;;;;;2.03;1.20;;;14.70;99.90;;;;;;4950486;28;20514;-54
2023/05/11 00:37:38;;;;;;;1.27;1.05;;;14.70;99.90;;;;;;5034348;28;20032;-54
2023/05/11 00:40:04;;;;;;;1.00;0.90;;;14.70;99.90;;;;;;5032132;28;20072;-55
2023/05/11 00:42:30;;;;;;;1.75;1.13;;;14.70;99.90;;;;;;5030991;28;20416;-54
2023/05/11 00:44:56;;;;;;;2.60;1.88;;;14.70;99.90;;;;;;5029770;28;20021;-54
2023/05/11 00:47:22;;;;;;;2.35;1.83;;;14.70;99.90;;;;;;5008516;28;20060;-55
2023/05/11 00:49:49;;;;;;;2.58;1.60;;;14.70;99.90;;;;;;5030822;28;20033;-54
2023/05/11 00:52:15;;;;;;;3.53;1.60;;;14.60;99.90;;;;;;5033710;28;20032;-55
2023/05/11 00:54:41;;;;;;;2.15;1.50;;;14.70;99.90;;;;;;5013885;28;20048;-54
2023/05/11 00:57:07;;;;;;;1.10;1.00;;;14.70;99.90;;;;;;5027476;28;20385;-54
2023/05/11 00:59:33;;;;;;;1.85;1.15;;;14.60;99.90;;;;;;5031075;28;20045;-54
2023/05/11 01:01:59;;;;;;;2.22;1.38;;;14.60;99.90;;;;;;5034236;28;20025;-54
2023/05/11 01:04:25;;;;;;;1.52;1.13;;;14.70;99.90;;;;;;5030168;28;20033;-55
2023/05/11 01:07:12;;;;;;;2.15;1.27;;;14.60;99.90;;;;;;5028090;28;20026;-55
2023/05/11 01:09:56;;;;;;;2.55;1.63;;;14.60;99.90;;;;;;5002954;28;20492;-55
2023/05/11 01:12:40;;;;;;;1.42;0.70;;;14.60;99.90;;;;;;5031323;28;20026;-55
2023/05/11 01:15:21;;;;;;;1.90;1.23;;;14.50;99.90;;;;;;5025932;28;20033;-54
2023/05/11 01:18:10;;;;;;;2.83;1.65;;;14.50;99.90;;;;;;5026949;28;20029;-54
2023/05/11 01:20:36;;;;;;;2.05;1.05;;;14.60;99.90;;;;;;5032277;28;20440;-55
2023/05/11 01:23:30;;;;;;;0.88;0.75;;;14.60;99.90;;;;;;5031762;28;20112;-55
2023/05/11 01:26:13;;;;;;;1.98;1.02;;;14.50;99.90;;;;;;4969851;28;20124;-55
2023/05/11 01:29:07;;;;;;;1.52;1.23;;;14.50;99.90;;;;;;4971569;28;20054;-55
2023/05/11 01:31:34;;;;;;;3.63;1.50;;;14.50;99.90;;;;;;4971582;28;20099;-55
2023/05/11 01:34:09;;;;;;;1.77;0.98;;;14.60;99.90;;;;;;4971784;28;20513;-54
2023/05/11 01:36:41;;;;;;;1.23;1.13;;;14.60;99.90;;;;;;4971218;28;20089;-54
2023/05/11 01:39:10;;;;;;;1.85;1.40;;;14.60;99.90;;;;;;4972025;28;20034;-55
2023/05/11 01:41:38;;;;;;;1.80;1.10;;;14.60;99.90;;;;;;4971242;28;20031;-55
2023/05/11 01:44:08;;;;;;;2.05;1.40;;;14.60;99.90;;;;;;4972270;28;20386;-54
2023/05/11 01:46:34;;;;;;;4.80;1.75;;;14.60;99.90;;;;;;4938367;28;20047;-55
2023/05/11 01:49:05;;;;;;;2.05;1.65;;;14.60;99.90;;;;;;4971535;28;20031;-54
2023/05/11 01:51:36;;;;;;;0.38;0.22;;;14.60;99.90;;;;;;4971152;28;20039;-54
2023/05/11 01:54:08;;;;;;;0.93;0.63;;;14.50;99.90;;;;;;4966389;28;20635;-54
2023/05/11 01:56:36;;;;;;;1.60;1.33;;;14.40;99.90;;;;;;4971272;28;20031;-55
2023/05/11 01:59:02;;;;;;;0.77;0.73;;;14.50;99.90;;;;;;4971460;28;20530;-54
2023/05/11 02:01:29;;;;;;;2.17;1.48;;;14.40;99.90;;;;;;4970839;28;20031;-54
2023/05/11 02:03:57;;;;;;;1.35;0.63;;;14.50;99.90;;;;;;5026045;28;20040;-55
2023/05/11 02:06:25;;;;;;;1.40;1.13;;;14.50;99.90;;;;;;5030950;28;20037;-54
2023/05/11 02:08:52;;;;;;;1.20;1.05;;;14.40;99.90;;;;;;5028040;28;20377;-55
2023/05/11 02:11:21;;;;;;;2.60;1.45;;;14.40;99.90;;;;;;5028703;28;20469;-55
2023/05/11 02:13:49;;;;;;;1.45;1.20;;;14.50;99.90;;;;;;5030486;28;20052;-54
2023/05/11 02:16:17;;;;;;;2.22;1.50;;;14.50;99.90;;;;;;5029419;28;20473;-55
2023/05/11 02:18:44;;;;;;;1.83;1.20;;;14.50;99.90;;;;;;5028198;28;20021;-55
2023/05/11 02:21:12;;;;;;;2.95;1.23;;;14.40;99.90;;;;;;5030552;28;20029;-54
2023/05/11 02:23:39;;;;;;;2.13;1.08;;;14.50;99.90;;;;;;5031152;28;20047;-55
2023/05/11 02:26:07;;;;;;;2.65;1.23;;;14.50;99.90;;;;;;5030154;28;20080;-55
2023/05/11 02:28:33;;;;;;;1.13;1.02;;;14.50;99.90;;;;;;5030356;28;20237;-55
2023/05/11 02:31:04;;;;;;;0.45;0.45;;;14.50;99.90;;;;;;5032071;28;20072;-54
2023/05/11 02:33:42;;;;;;;0.67;0.60;;;14.40;99.90;;;;;;5029354;28;20076;-54
2023/05/11 02:36:09;;;;;;;2.08;1.00;;;14.40;99.90;;;;;;4994182;28;20501;-54
2023/05/11 02:38:36;;;;;;;1.85;1.50;;;14.40;99.90;;;;;;5032071;28;20051;-54
2023/05/11 02:41:08;;;;;;;0.75;0.75;;;14.50;99.90;;;;;;5022860;28;20034;-54
2023/05/11 02:43:39;;;;;;;1.83;1.25;;;14.40;99.90;;;;;;5026957;28;20406;-55
2023/05/11 02:46:10;;;;;;;2.22;1.63;;;14.40;99.90;;;;;;5026642;28;20042;-54
2023/05/11 02:48:44;;;;;;;3.05;1.55;;;14.40;99.90;;;;;;5030191;28;20033;-55
2023/05/11 02:51:12;;;;;;;2.10;1.70;;;14.50;99.90;;;;;;5029727;28;20045;-55
2023/05/11 02:53:40;;;;;;;2.05;1.38;;;14.50;99.90;;;;;;5028606;28;20060;-54
2023/05/11 02:56:07;;;;;;;2.00;1.38;;;14.40;99.90;;;;;;5031324;28;20030;-55
2023/05/11 02:58:34;;;;;;;1.15;1.05;;;14.50;99.90;;;;;;5029755;28;20549;-54
2023/05/11 03:01:00;;;;;;;2.45;1.80;;;14.40;99.90;;;;;;4994212;28;20056;-55
2023/05/11 03:03:26;;;;;;;2.90;1.58;;;14.50;99.90;;;;;;4983291;28;20110;-54
2023/05/11 03:05:52;;;;;;;2.28;1.27;;;14.40;99.90;;;;;;5030660;28;20059;-55
2023/05/11 03:08:18;;;;;;;2.80;1.25;;;14.40;99.90;;;;;;5031818;28;20021;-54
2023/05/11 03:10:45;;;;;;;1.75;1.50;;;14.40;99.90;;;;;;5034448;28;20060;-54
2023/05/11 03:13:11;;;;;;;2.40;1.50;;;14.40;99.90;;;;;;5033274;28;20021;-55
2023/05/11 03:15:37;;;;;;;2.40;1.20;;;14.40;99.90;;;;;;5030969;28;20033;-54
2023/05/11 03:18:05;;;;;;;1.40;1.30;;;14.40;99.90;;;;;;5033743;28;20074;-54
2023/05/11 03:20:34;;;;;;;1.33;1.13;;;14.40;99.90;;;;;;5030024;28;20096;-54
2023/05/11 03:23:00;;;;;;;1.27;1.17;;;14.40;99.90;;;;;;5033474;28;20032;-54
2023/05/11 03:25:28;;;;;;;0.85;0.68;;;14.40;99.90;;;;;;5035805;28;20026;-54
2023/05/11 03:27:55;;;;;;;3.47;1.70;;;14.40;99.90;;;;;;5002073;28;20057;-54
2023/05/11 03:30:22;;;;;;;1.58;1.25;;;14.50;99.90;;;;;;5028901;28;20034;-54
2023/05/11 03:32:48;;;;;;;3.17;1.67;;;14.40;99.90;;;;;;5030081;28;20484;-54
2023/05/11 03:35:14;;;;;;;3.53;1.70;;;14.40;99.90;;;;;;5033084;28;20060;-54
2023/05/11 03:37:41;;;;;;;2.30;1.60;;;14.50;99.90;;;;;;5034531;28;20480;-53
2023/05/11 03:40:08;;;;;;;2.13;1.38;;;14.40;99.90;;;;;;5033694;28;20480;-54
2023/05/11 03:42:35;;;;;;;1.90;1.67;;;14.40;99.90;;;;;;5001163;28;20431;-54
2023/05/11 03:45:04;;;;;;;1.90;1.33;;;14.40;99.90;;;;;;5032025;28;20033;-54
2023/05/11 03:47:32;;;;;;;1.67;1.00;;;14.50;99.90;;;;;;5034348;28;20037;-54
2023/05/11 03:49:59;;;;;;;2.30;1.10;;;14.40;99.90;;;;;;5034348;28;20184;-54
2023/05/11 03:52:25;;;;;;;1.88;1.50;;;14.40;99.90;;;;;;5029209;28;20025;-54
2023/05/11 03:54:51;;;;;;;1.95;1.23;;;14.40;99.90;;;;;;4999674;28;20050;-55
2023/05/11 03:57:17;;;;;;;2.30;1.70;;;14.50;99.90;;;;;;5033668;28;20033;-54
2023/05/11 03:59:42;;;;;;;2.70;1.77;;;14.50;99.90;;;;;;5031075;28;20052;-54
2023/05/11 04:02:08;;;;;;;3.33;1.45;;;14.40;99.90;;;;;;5033102;28;20156;-55
2023/05/11 04:04:34;;;;;;;0.60;0.60;;;14.50;99.90;;;;;;5030514;28;20036;-54
2023/05/11 04:07:00;;;;;;;1.98;1.23;;;14.40;99.90;;;;;;5029925;28;20029;-54
2023/05/11 04:09:26;;;;;;;1.55;1.45;;;14.50;99.90;;;;;;5029985;28;20115;-55
2023/05/11 04:11:51;;;;;;;1.73;1.17;;;14.30;99.90;;;;;;5034815;28;20469;-54
2023/05/11 04:14:17;;;;;;;3.35;1.75;;;14.30;99.90;;;;;;5031366;28;20367;-55
2023/05/11 04:16:44;;;;;;;2.97;1.00;;;14.30;99.90;;;;;;4997214;28;20496;-55
2023/05/11 04:19:09;;;;;;;1.05;0.68;;;14.30;99.90;;;;;;5000009;28;20396;-54
2023/05/11 04:21:35;;;;;;;2.65;1.88;;;14.30;99.90;;;;;;5006938;28;20092;-54
2023/05/11 04:24:01;;;;;;;1.45;1.23;;;14.30;99.90;;;;;;5014559;28;20041;-54
2023/05/11 04:26:27;;;;;;;4.13;1.02;;;14.20;99.90;;;;;;5034193;28;20029;-54
2023/05/11 04:28:53;;;;;;;2.20;1.70;;;;;;;;;;5031477;28;20084;-54
2023/05/11 04:31:19;;;;;;;2.78;1.83;;;14.70;99.90;;;;;;5028975;28;20088;-54
2023/05/11 04:33:45;;;;;;;1.65;1.30;;;14.70;99.90;;;;;;5023708;28;20473;-54
2023/05/11 04:36:10;;;;;;;1.83;1.35;;;14.60;99.90;;;;;;5025527;28;20032;-54
2023/05/11 04:38:36;;;;;;;2.20;1.45;;;14.60;99.90;;;;;;5032215;28;20603;-54
2023/05/11 04:41:07;;;;;;;3.00;1.58;;;14.60;99.90;;;;;;4964343;28;20392;-54
2023/05/11 04:43:33;;;;;;;1.48;1.05;;;14.70;99.90;;;;;;5029780;28;20017;-55
2023/05/11 04:45:59;;;;;;;2.10;1.63;;;14.70;99.90;;;;;;5027007;28;20026;-55
2023/05/11 04:48:25;;;;;;;1.75;1.60;;;14.70;99.90;;;;;;5013520;28;20041;-55
2023/05/11 04:50:54;;;;;;;2.20;1.30;;;14.70;99.90;;;;;;5027128;28;20488;-55
2023/05/11 04:53:20;;;;;;;3.53;1.63;;;14.80;99.90;;;;;;5027779;28;20022;-55
2023/05/11 04:55:46;;;;;;;0.45;0.45;;;14.70;99.90;;;;;;5030819;28;20044;-55
2023/05/11 04:58:12;;;;;;;2.42;1.50;;;14.70;99.90;;;;;;5026435;28;20021;-58
2023/05/11 05:00:38;;;;;;;3.17;1.42;;;14.70;99.90;;;;;;5013941;28;20504;-53
2023/05/11 05:03:03;;;;;;;1.83;1.40;;;14.70;99.90;;;;;;5028284;28;20033;-53
2023/05/11 05:05:29;;;;;;;1.52;1.42;;;14.70;99.90;;;;;;5032231;28;20469;-53
2023/05/11 05:07:55;;;;;;;3.30;1.55;;;14.70;99.90;;;;;;5030444;28;20033;-51
2023/05/11 05:10:21;;;;;;;2.83;1.83;;;14.80;99.90;;;;;;5013575;28;20033;-53
2023/05/11 05:12:47;;;;;;;3.30;1.83;;;14.90;99.90;;;;;;5033391;28;20025;-54
2023/05/11 05:15:13;;;;;;;2.50;1.92;;;14.90;99.90;;;;;;5027869;28;20034;-55
2023/05/11 05:17:39;;;;;;;4.82;1.52;;;14.90;99.90;;;;;;5029513;28;20061;-54
2023/05/11 05:20:07;;;;;;;1.85;1.40;;;15.00;99.90;;;;;;5030839;28;20111;-56
2023/05/11 05:22:33;;;;;;;2.35;1.77;;;15.00;99.90;;;;;;5026124;28;20151;-54
2023/05/11 05:24:58;;;;;;;3.20;2.10;;;15.00;99.90;;;;;;5029313;28;20115;-53
2023/05/11 05:27:24;;;;;;;3.15;1.98;;;15.10;99.90;;;;;;5030081;28;20049;-54
2023/05/11 05:29:50;;;;;;;2.95;2.38;;;15.10;99.90;;;;;;5029582;28;20033;-54
2023/05/11 05:32:16;;;;;;;1.30;1.17;;;15.00;99.90;;;;;;5030496;28;20036;-54
2023/05/11 05:34:42;;;;;;;2.97;1.90;;;15.10;99.90;;;;;;5012510;28;20057;-54
2023/05/11 05:37:08;;;;;;;3.90;2.47;;;15.20;99.90;;;;;;5029516;28;20369;-54
2023/05/11 05:39:34;;;;;;;3.60;2.25;;;15.20;99.90;;;;;;5029879;28;20056;-54
2023/05/11 05:42:01;;;;;;;1.58;0.93;;;15.30;99.90;;;;;;5027451;28;20017;-53
2023/05/11 05:44:27;;;;;;;3.97;1.73;;;;;;;;;;5010713;28;20033;-54
2023/05/11 05:46:54;;;;;;;2.22;1.73;;;;;;;;;;5028252;28;20041;-53
2023/05/11 05:49:19;;;;;;;2.50;1.88;;;14.90;99.90;;;;;;5011486;28;20129;-54
2023/05/11 05:51:45;;;;;;;3.28;1.83;;;14.90;99.90;;;;;;5029805;28;20116;-55
2023/05/11 05:54:12;;;;;;;2.30;1.73;;;14.90;99.90;;;;;;5027825;28;20040;-54
2023/05/11 05:56:39;;;;;;;3.20;2.20;;;14.90;99.90;;;;;;5028816;28;20465;-54
2023/05/11 05:59:07;;;;;;;2.05;1.40;;;14.90;99.90;;;;;;5031260;28;20041;-54
2023/05/11 06:01:33;;;;;;;9.20;2.28;;;14.90;99.90;;;;;;5032733;28;20079;-55
2023/05/11 06:03:59;;;;;;;4.32;1.90;;;14.80;99.90;;;;;;5024108;28;20056;-53
2023/05/11 06:06:26;;;;;;;2.92;2.08;;;14.80;99.90;;;;;;5029443;28;20457;-53
2023/05/11 06:08:52;;;;;;;2.25;1.55;;;14.80;99.90;;;;;;5030053;28;20037;-55
2023/05/11 06:11:18;;;;;;;4.63;2.08;;;14.80;99.90;;;;;;5031407;28;20428;-54
2023/05/11 06:13:43;;;;;;;3.13;2.03;;;14.90;99.90;;;;;;5032120;28;20033;-55
2023/05/11 06:16:09;;;;;;;2.88;2.20;;;14.90;99.90;;;;;;5029062;28;20461;-54
2023/05/11 06:18:35;;;;;;;4.22;2.25;;;14.90;99.90;;;;;;5031827;28;20508;-55
2023/05/11 06:21:01;;;;;;;3.47;1.92;;;14.90;99.90;;;;;;5029157;28;20029;-53
2023/05/11 06:23:26;;;;;;;1.10;1.00;;;15.00;99.90;;;;;;5031107;28;20041;-54
2023/05/11 06:25:52;;;;;;;3.45;2.78;;;14.80;99.90;;;;;;5029782;28;20032;-55
2023/05/11 06:28:18;;;;;;;4.60;2.53;;;14.90;99.90;;;;;;5005363;28;20045;-53
2023/05/11 06:30:44;;;;;;;0.93;0.70;;;15.10;99.90;;;;;;4981000;28;20053;-54
2023/05/11 06:33:09;;;;;;;6.10;2.60;;;14.90;99.90;;;;;;5028999;28;20370;-53
2023/05/11 06:35:36;;;;;;;3.95;2.08;;;15.20;99.90;;;;;;5009904;28;20052;-53
2023/05/11 06:38:02;;;;;;;2.70;1.90;;;15.30;99.90;;;;;;5023781;28;20022;-53
2023/05/11 06:40:28;;;;;;;4.65;2.30;;;15.40;99.90;;;;;;5027095;28;20026;-53
2023/05/11 06:42:54;;;;;;;3.58;1.80;;;15.50;99.90;;;;;;4980583;28;20045;-53
2023/05/11 06:45:20;;;;;;;2.45;1.52;;;15.70;99.90;;;;;;5013011;28;20060;-56
2023/05/11 06:47:46;;;;;;;3.75;1.92;;;15.80;99.90;;;;;;5027336;28;20439;-54
2023/05/11 06:50:12;;;;;;;2.65;1.40;;;16.00;99.90;;;;;;5011980;28;20040;-53
2023/05/11 06:52:38;;;;;;;2.15;1.73;;;15.90;99.90;;;;;;5004788;28;20033;-55
2023/05/11 06:55:04;;;;;;;3.50;2.63;;;16.00;99.90;;;;;;4979413;28;20053;-53
2023/05/11 06:57:30;;;;;;;2.30;1.88;;;16.20;99.90;;;;;;5028463;28;20042;-55
2023/05/11 06:59:56;;;;;;;4.38;2.53;;;16.20;99.90;;;;;;5030185;28;20046;-55
2023/05/11 07:02:22;;;;;;;2.80;1.65;;;16.10;99.90;;;;;;4981103;28;20076;-54
2023/05/11 07:04:48;;;;;;;1.50;1.27;;;16.40;99.90;;;;;;5000203;28;20038;-53
2023/05/11 07:07:13;;;;;;;1.48;1.17;;;16.50;99.90;;;;;;5010055;28;20040;-58
2023/05/11 07:09:39;;;;;;;2.20;2.00;;;16.50;99.90;;;;;;5030908;28;20061;-59
2023/05/11 07:12:05;;;;;;;3.45;2.40;;;16.50;99.90;;;;;;5029981;28;20029;-58
2023/05/11 07:14:31;;;;;;;4.63;2.97;;;;;;;;;;5011979;28;20068;-50
2023/05/11 07:16:57;;;;;;;2.28;1.40;;;;;;;;;;5028870;28;20033;-62
2023/05/11 07:19:23;;;;;;;1.38;1.27;;;17.20;99.90;;;;;;5029025;28;20034;-58
2023/05/11 07:21:50;;;;;;;1.48;1.38;;;16.70;99.90;;;;;;4948270;28;20366;-53
2023/05/11 07:24:15;;;;;;;1.05;1.00;;;16.60;99.90;;;;;;5028344;28;20128;-53
2023/05/11 07:26:41;;;;;;;2.95;2.08;;;16.50;99.90;;;;;;5028556;28;20524;-56
2023/05/11 07:29:07;;;;;;;1.30;1.20;;;16.60;99.90;;;;;;5028513;28;20021;-53
2023/05/11 07:31:34;;;;;;;2.42;2.13;;;16.50;99.90;;;;;;4996285;28;20535;-53
2023/05/11 07:33:59;;;;;;;3.92;1.98;;;16.40;99.90;;;;;;5028918;28;20072;-55
2023/05/11 07:36:25;;;;;;;3.60;1.90;;;16.20;99.90;;;;;;5028547;28;20056;-52
2023/05/11 07:38:51;;;;;;;1.80;1.52;;;16.30;99.90;;;;;;4979298;28;20045;-55
2023/05/11 07:41:18;;;;;;;1.95;1.30;;;16.30;99.90;;;;;;5026945;28;20498;-54
2023/05/11 07:43:43;;;;;;;1.63;0.80;;;16.40;99.90;;;;;;5029097;28;20073;-52
2023/05/11 07:46:09;;;;;;;2.80;2.22;;;16.40;99.90;;;;;;5032402;28;20068;-56
2023/05/11 07:48:35;;;;;;;1.80;1.42;;;16.40;99.90;;;;;;5033516;28;20429;-54
2023/05/11 07:51:02;;;;;;;2.75;1.35;;;16.30;99.90;;;;;;5027854;28;20029;-56
2023/05/11 07:53:27;;;;;;;7.03;2.22;;;16.00;99.90;;;;;;5033225;28;20025;-53
2023/05/11 07:55:53;;;;;;;1.38;1.13;;;16.10;99.90;;;;;;4999092;28;20423;-52
2023/05/11 07:58:19;;;;;;;1.50;1.40;;;;;;;;;;5031848;28;20522;-54
2023/05/11 08:00:45;;;;;;;2.33;1.75;;;;;;;;;;5032244;28;20045;-54
2023/05/11 08:03:11;;;;;;;2.55;1.45;;;16.10;99.90;;;;;;5032755;28;20148;-55
2023/05/11 08:05:36;;;;;;;2.72;1.77;;;15.80;99.90;;;;;;4995463;28;20136;-54
2023/05/11 08:08:03;;;;;;;2.58;2.15;;;15.70;99.90;;;;;;4998886;28;20411;-55
2023/05/11 08:10:30;;;;;;;3.85;1.88;;;15.80;99.90;;;;;;4994098;28;20402;-53
2023/05/11 08:12:57;;;;;;;1.63;1.17;;;15.80;99.90;;;;;;5027688;28;20117;-56
2023/05/11 08:15:23;;;;;;;2.58;2.33;;;15.60;99.90;;;;;;5034678;28;20046;-56
2023/05/11 08:17:48;;;;;;;2.63;2.13;;;15.50;99.90;;;;;;5031647;28;20431;-56
2023/05/11 08:20:14;;;;;;;3.13;2.15;;;15.70;99.90;;;;;;5013498;28;20440;-52
2023/05/11 08:22:40;;;;;;;3.50;2.22;;;15.60;99.90;;;;;;5014241;28;20041;-56
2023/05/11 08:25:06;;;;;;;2.17;1.50;;;15.40;99.90;;;;;;4981172;28;20037;-53
2023/05/11 08:27:32;;;;;;;1.48;1.05;;;15.40;99.90;;;;;;4966505;28;20033;-52
2023/05/11 08:29:57;;;;;;;2.75;2.10;;;15.50;99.90;;;;;;4998248;28;20031;-55
2023/05/11 08:32:23;;;;;;;3.95;2.42;;;15.70;99.90;;;;;;5013733;28;20399;-55
2023/05/11 08:34:50;;;;;;;2.55;1.70;;;15.80;99.90;;;;;;4982913;28;20037;-55
2023/05/11 08:37:16;;;;;;;4.78;2.30;;;15.80;99.90;;;;;;5029941;28;20067;-53
2023/05/11 08:39:41;;;;;;;1.40;1.25;;;15.70;99.90;;;;;;5029537;28;20389;-52
2023/05/11 08:42:09;;;;;;;2.65;2.20;;;15.80;99.90;;;;;;4997248;28;20037;-56
2023/05/11 08:44:36;;;;;;;3.72;2.40;;;16.20;99.90;;;;;;5029177;28;20025;-55
2023/05/11 08:47:04;;;;;;;1.75;1.30;;;16.30;99.90;;;;;;5031133;28;20477;-56
2023/05/11 08:49:31;;;;;;;1.77;1.63;;;16.20;99.90;;;;;;5032902;28;20037;-55
2023/05/11 08:51:56;;;;;;;3.92;2.33;;;16.30;99.90;;;;;;5028869;28;20026;-53
2023/05/11 08:54:22;;;;;;;3.67;1.60;;;16.40;99.90;;;;;;5030320;28;20090;-55
2023/05/11 08:56:50;;;;;;;2.72;2.28;;;16.50;99.90;;;;;;5030873;28;20487;-52
2023/05/11 08:59:17;;;;;;;3.20;2.20;;;16.70;99.90;;;;;;5026362;28;20543;-54
2023/05/11 09:01:44;;;;;;;2.63;1.88;;;17.00;99.90;;;;;;5031687;28;20469;-56
2023/05/11 09:04:12;;;;;;;1.70;1.50;;;17.20;99.90;;;;;;5030693;28;20061;-53
2023/05/11 09:06:38;;;;;;;2.03;1.25;;;17.30;99.90;;;;;;5032390;28;20037;-53
2023/05/11 09:09:04;;;;;;;3.10;2.17;;;17.20;99.90;;;;;;5031615;28;20021;-53
2023/05/11 09:11:30;;;;;;;3.67;1.90;;;17.40;99.90;;;;;;5031030;28;20024;-54
2023/05/11 09:13:56;;;;;;;1.42;1.10;;;17.40;99.90;;;;;;4996564;28;20041;-56
2023/05/11 09:16:22;;;;;;;3.70;2.03;;;17.20;99.90;;;;;;5004724;28;20092;-52
2023/05/11 09:18:49;;;;;;;4.35;2.13;;;;;;;;;;5024079;28;20033;-51
2023/05/11 09:21:15;;;;;;;3.92;2.25;;;17.90;99.90;;;;;;5029626;28;20029;-53
2023/05/11 09:23:41;;;;;;;3.20;2.15;;;17.80;99.90;;;;;;4982250;28;20038;-56
2023/05/11 09:26:20;;;;;;;3.72;2.03;;;18.00;99.90;;;;;;5030807;28;20068;-51
2023/05/11 09:28:54;;;;;;;1.80;0.77;;;18.00;99.90;;;;;;5032723;28;20045;-51
2023/05/11 09:31:41;;;;;;;2.83;2.30;;;18.00;99.90;;;;;;5028608;28;20048;-49
2023/05/11 09:34:21;;;;;;;3.83;1.95;;;18.10;99.90;;;;;;5029010;28;20113;-50
2023/05/11 09:36:52;;;;;;;2.38;2.17;;;18.30;99.90;;;;;;5023928;28;20037;-52
2023/05/11 09:39:27;;;;;;;3.45;1.60;;;18.20;99.90;;;;;;5027432;28;20029;-51
2023/05/11 09:42:13;;;;;;;2.75;2.00;;;18.00;99.90;;;;;;4982904;28;20041;-49
2023/05/11 09:44:42;;;;;;;2.40;1.33;;;18.10;99.90;;;;;;5032717;28;20033;-50
2023/05/11 09:47:15;;;;;;;1.25;0.73;;;17.80;99.90;;;;;;5031145;28;20504;-50
2023/05/11 09:49:43;;;;;;;2.35;1.50;;;17.90;99.90;;;;;;5028130;28;20026;-50
2023/05/11 09:52:14;;;;;;;2.40;1.77;;;18.00;99.90;;;;;;5028227;28;20030;-51
2023/05/11 09:54:45;;;;;;;1.93;1.43;;;18.10;99.90;;;;;;4997181;28;20072;-52
2023/05/11 09:57:25;;;;;;;1.25;1.08;;;18.00;99.90;;;;;;5031881;28;20033;-51
2023/05/11 09:59:52;;;;;;;1.75;1.63;;;17.90;99.90;;;;;;5032705;28;20053;-51
2023/05/11 10:02:25;;;;;;;1.13;1.02;;;17.70;99.90;;;;;;5029640;28;20017;-51
2023/05/11 10:04:55;;;;;;;2.38;1.85;;;17.30;99.90;;;;;;5023537;28;20026;-52
2023/05/11 10:07:34;;;;;;;2.10;1.70;;;17.40;99.90;;;;;;4977893;28;20061;-51
2023/05/11 10:10:02;;;;;;;3.72;0.80;;;17.30;99.90;;;;;;4992296;28;20046;-49
2023/05/11 10:12:29;;;;;;;1.83;1.48;;;17.10;99.90;;;;;;5026799;28;20025;-52
2023/05/11 10:15:00;;;;;;;1.38;1.00;;;16.90;99.90;;;;;;5032165;28;20041;-51
2023/05/11 10:17:27;;;;;;;1.52;1.40;;;16.90;99.90;;;;;;4998297;28;20040;-51
2023/05/11 10:19:55;;;;;;;3.13;1.85;;;16.80;99.90;;;;;;5026229;28;20473;-50
2023/05/11 10:22:23;;;;;;;3.15;1.00;;;16.90;99.90;;;;;;5031697;28;20033;-51
2023/05/11 10:24:49;;;;;;;2.05;1.67;;;16.70;99.90;;;;;;5032002;28;20036;-52
2023/05/11 10:27:15;;;;;;;1.63;1.52;;;16.70;99.90;;;;;;5026121;28;20031;-52
2023/05/11 10:29:42;;;;;;;2.67;2.00;;;16.70;99.90;;;;;;5029136;28;20120;-47
2023/05/11 10:32:10;;;;;;;0.98;0.93;;;16.80;99.90;;;;;;5027462;28;20079;-46
2023/05/11 10:34:38;;;;;;;0.77;0.77;;;16.80;99.90;;;;;;5030486;28;20069;-47
2023/05/11 10:37:05;;;;;;;2.60;1.50;;;16.80;99.90;;;;;;5029354;28;20041;-51
2023/05/11 10:39:31;;;;;;;1.25;1.00;;;16.70;99.90;;;;;;5030249;28;20041;-52
2023/05/11 10:42:12;;;;;;;1.77;1.40;;;16.80;99.90;;;;;;5030945;28;20029;-52
2023/05/11 10:45:11;;;;;;;2.40;1.48;;;16.80;99.90;;;;;;5027737;28;20485;-55
2023/05/11 10:47:43;;;;;;;2.70;1.40;;;16.90;99.90;;;;;;5027682;28;20083;-48
2023/05/11 10:50:30;;;;;;;3.28;1.55;;;16.80;99.90;;;;;;5030723;28;20440;-52
2023/05/11 10:53:14;;;;;;;1.33;1.23;;;16.80;99.90;;;;;;5025134;28;20044;-52
2023/05/11 10:56:05;;;;;;;2.88;2.42;;;16.90;99.90;;;;;;5029264;28;20041;-52
2023/05/11 10:58:43;;;;;;;1.95;1.58;;;16.80;99.90;;;;;;5028329;28;20036;-51
2023/05/11 11:01:35;;;;;;;1.05;0.95;;;16.80;99.90;;;;;;5030593;28;20089;-51
2023/05/11 11:04:08;;;;;;;4.22;1.83;;;16.50;99.90;;;;;;5026705;28;20168;-52
2023/05/11 11:06:36;;;;;;;7.85;3.92;;;16.50;99.90;;;;;;5027366;28;20064;-51
2023/05/11 11:09:06;;;;;;;2.63;1.45;;;16.60;99.90;;;;;;5026971;28;20108;-52
2023/05/11 11:11:45;;;;;;;1.55;1.30;;;16.50;99.90;;;;;;5028249;28;20033;-52
2023/05/11 11:14:13;;;;;;;1.85;1.48;;;16.50;99.90;;;;;;5029063;28;20021;-52
2023/05/11 11:16:40;;;;;;;1.45;1.35;;;16.60;99.90;;;;;;5011609;28;20033;-52
2023/05/11 11:19:42;;;;;;;2.78;1.83;;;16.20;99.90;;;;;;5029561;28;20384;-52
2023/05/11 11:22:33;;;;;;;4.77;2.80;;;16.20;99.90;;;;;;4962236;28;20037;-52
2023/05/11 11:25:25;;;;;;;4.23;1.40;;;16.30;99.90;;;;;;4990905;28;20050;-52
2023/05/11 11:27:51;;;;;;;4.28;1.90;;;16.10;99.90;;;;;;4972001;28;20154;-52
2023/05/11 11:30:17;;;;;;;6.53;2.55;;;16.10;99.90;;;;;;4991495;28;20066;-52
2023/05/11 11:32:43;;;;;;;2.72;1.83;;;15.90;99.90;;;;;;4992926;28;20039;-52
2023/05/11 11:35:40;;;;;;;2.20;1.73;;;16.00;99.90;;;;;;4988540;28;20088;-52
2023/05/11 11:38:10;;;;;;;1.77;1.30;;;;;;;;;;4992174;28;20079;-52
2023/05/11 11:40:39;;;;;;;3.03;2.00;;;15.60;99.90;;;;;;4988517;28;20032;-53
2023/05/11 11:43:18;;;;;;;2.38;1.65;;;15.50;99.90;;;;;;4972470;28;20031;-52
2023/05/11 11:46:00;;;;;;;3.13;2.33;;;15.50;99.90;;;;;;4972843;28;20530;-53
2023/05/11 11:48:40;;;;;;;2.10;1.40;;;15.30;99.90;;;;;;4969685;28;20057;-52
2023/05/11 11:51:07;;;;;;;1.83;1.60;;;15.30;99.90;;;;;;4969209;28;20043;-53
2023/05/11 11:53:36;;;;;;;3.45;2.28;;;15.20;99.90;;;;;;4956773;28;20027;-53
2023/05/11 11:56:03;;;;;;;1.48;1.17;;;15.30;99.90;;;;;;4977992;28;20038;-52
2023/05/11 11:58:52;;;;;;;2.97;2.13;;;15.10;99.90;;;;;;4990496;28;20031;-53
2023/05/11 12:01:21;;;;;;;4.88;3.03;;;15.20;99.90;;;;;;4935458;29;20069;-53
2023/05/11 12:04:15;;;;;;;2.58;2.05;;;15.20;99.90;;;;;;4934309;29;20043;-52
2023/05/11 12:06:43;;;;;;;4.05;2.72;;;15.00;99.90;;;;;;4916445;29;20035;-52
2023/05/11 12:09:15;;;;;;;4.25;2.92;;;15.00;99.90;;;;;;4917415;29;20040;-53
2023/05/11 12:11:46;;;;;;;3.95;2.80;;;14.90;99.90;;;;;;4914366;29;20048;-53
2023/05/11 12:14:12;;;;;;;3.85;2.55;;;14.90;99.90;;;;;;4914761;29;20052;-53
2023/05/11 12:16:41;;;;;;;1.73;1.50;;;14.90;99.90;;;;;;4929342;29;20043;-53
2023/05/11 12:19:08;;;;;;;2.03;1.65;;;14.70;99.90;;;;;;4918513;29;20050;-53
2023/05/11 12:21:33;;;;;;;11.88;4.30;;;14.70;99.90;;;;;;4950296;28;20063;-53
2023/05/11 12:24:02;;;;;;;4.85;3.17;;;14.90;99.90;;;;;;4944272;29;20027;-54
2023/05/11 12:26:29;;;;;;;3.75;1.60;;;14.90;99.90;;;;;;4936539;28;20228;-52
2023/05/11 12:29:09;;;;;;;4.93;3.83;;;12.70;99.90;;;;;;4949165;29;20036;-52
2023/05/11 12:31:39;;;;;;;3.25;2.63;;;15.00;99.90;;;;;;4913707;29;20036;-51
2023/05/11 12:34:05;;;;;;;5.78;3.53;;;14.90;99.90;;;;;;4900085;29;20068;-51
2023/05/11 12:36:33;;;;;;;5.18;3.45;;;15.00;99.90;;;;;;4870817;29;20068;-52
2023/05/11 12:38:58;;;;;;;3.67;2.42;;;14.90;99.90;;;;;;4963268;28;20030;-53
2023/05/11 12:41:24;;;;;;;7.13;3.22;;;14.80;99.90;;;;;;4975740;28;20554;-51
2023/05/11 12:43:51;;;;;;;5.85;3.85;;;13.80;99.90;;;;;;4942128;28;20502;-51
2023/05/11 12:46:18;;;;;;;4.13;2.88;;;14.90;99.90;;;;;;4938782;28;20043;-52
2023/05/11 12:48:48;;;;;;;6.50;3.60;;;14.90;99.90;;;;;;4937173;29;20043;-53
2023/05/11 12:51:43;;;;;;;4.63;3.42;;;15.00;99.90;;;;;;4929664;29;20070;-53
2023/05/11 12:54:09;;;;;;;3.63;2.28;;;14.90;99.90;;;;;;4898991;29;20072;-53
2023/05/11 12:56:50;;;;;;;2.15;1.75;;;14.80;99.90;;;;;;4898567;29;20087;-52
2023/05/11 12:59:36;;;;;;;1.95;1.15;;;13.30;99.90;;;;;;4879800;29;20112;-52